createdAt,value
2024-04-25T00:00:02.906Z,7.13
2024-04-25T00:02:32.660Z,6.53
2024-04-25T00:05:02.440Z,7.57
2024-04-25T00:07:34.732Z,7.00
2024-04-25T00:10:04.487Z,7.50
2024-04-25T00:12:34.376Z,6.97
2024-04-25T00:15:04.054Z,7.03
2024-04-25T00:17:33.860Z,7.60
2024-04-25T00:20:03.785Z,7.23
2024-04-25T00:22:36.103Z,7.43
2024-04-25T00:25:05.907Z,7.13
2024-04-25T00:27:35.615Z,7.27
2024-04-25T00:30:05.294Z,7.33
2024-04-25T00:32:35.261Z,7.03
2024-04-25T00:35:05.445Z,7.43
2024-04-25T00:37:35.206Z,7.70
2024-04-25T00:40:06.493Z,8.00
2024-04-25T00:42:36.142Z,8.03
2024-04-25T00:45:05.971Z,7.10
2024-04-25T00:47:36.813Z,6.83
2024-04-25T00:50:08.448Z,6.70
2024-04-25T00:52:40.813Z,7.43
2024-04-25T00:55:11.244Z,7.43
2024-04-25T00:57:41.808Z,7.47
2024-04-25T01:00:12.338Z,7.37
2024-04-25T01:02:43.815Z,7.53
2024-04-25T01:05:14.024Z,7.80
2024-04-25T01:07:46.452Z,7.20
2024-04-25T01:10:16.214Z,7.27
2024-04-25T01:12:46.095Z,7.20
2024-04-25T01:15:15.850Z,7.53
2024-04-25T01:17:45.680Z,7.70
2024-04-25T01:20:15.493Z,7.07
2024-04-25T01:22:50.149Z,7.47
2024-04-25T01:25:23.222Z,6.53
2024-04-25T01:27:53.794Z,5.20
2024-04-25T01:30:24.432Z,5.10
2024-04-25T01:32:54.374Z,5.77
2024-04-25T01:35:25.981Z,6.10
2024-04-25T01:37:58.618Z,6.07
2024-04-25T01:40:30.988Z,7.43
2024-04-25T01:43:00.891Z,8.13
2024-04-25T01:45:30.642Z,9.10
2024-04-25T01:48:00.510Z,10.97
2024-04-25T01:50:30.342Z,10.67
2024-04-25T01:53:00.077Z,9.93
2024-04-25T01:55:32.406Z,10.27
2024-04-25T01:58:02.150Z,9.87
2024-04-25T02:00:31.866Z,9.33
2024-04-25T02:03:01.843Z,10.47
2024-04-25T02:05:31.671Z,10.23
2024-04-25T02:08:01.413Z,10.40
2024-04-25T02:10:33.805Z,10.67
2024-04-25T02:13:03.530Z,11.00
2024-04-25T02:15:33.293Z,10.97
2024-04-25T02:18:03.197Z,11.77
2024-04-25T02:20:48.773Z,11.03
2024-04-25T02:23:37.010Z,10.40
2024-04-25T02:26:11.869Z,10.07
2024-04-25T02:28:41.638Z,11.57
2024-04-25T02:31:15.001Z,11.17
2024-04-25T02:33:44.710Z,11.33
2024-04-25T02:36:14.433Z,11.30
2024-04-25T02:38:44.180Z,11.00
2024-04-25T02:41:16.532Z,11.07
2024-04-25T02:43:46.282Z,12.33
2024-04-25T02:46:13.406Z,11.73
2024-04-25T02:48:43.405Z,11.83
2024-04-25T02:51:13.275Z,12.90
2024-04-25T02:53:40.388Z,13.17
2024-04-25T02:56:10.532Z,13.57
2024-04-25T02:58:40.305Z,13.30
2024-04-25T03:01:10.030Z,12.97
2024-04-25T03:03:37.295Z,12.13
2024-04-25T03:06:07.171Z,12.23
2024-04-25T03:08:34.303Z,11.70
2024-04-25T03:11:06.219Z,12.13
2024-04-25T03:13:35.859Z,12.20
2024-04-25T03:16:09.827Z,12.13
2024-04-25T03:18:37.014Z,11.67
2024-04-25T03:21:07.529Z,11.87
2024-04-25T03:23:36.485Z,12.37
2024-04-25T03:26:06.679Z,12.33
2024-04-25T03:28:34.832Z,12.63
2024-04-25T03:31:04.713Z,12.77
2024-04-25T03:33:34.531Z,14.00
2024-04-25T03:36:04.307Z,13.73
2024-04-25T03:38:34.047Z,13.10
2024-04-25T03:41:03.769Z,12.50
2024-04-25T03:43:33.763Z,12.87
2024-04-25T03:46:03.500Z,13.37
2024-04-25T03:48:35.968Z,13.20
2024-04-25T03:51:05.902Z,14.37
2024-04-25T03:53:35.616Z,13.33
2024-04-25T03:56:05.615Z,11.70
2024-04-25T03:58:35.428Z,12.13
2024-04-25T04:01:05.180Z,12.43
2024-04-25T04:03:37.595Z,12.60
2024-04-25T04:06:07.596Z,12.33
2024-04-25T04:08:37.559Z,13.50
2024-04-25T04:11:07.833Z,12.27
2024-04-25T04:13:37.600Z,11.93
2024-04-25T04:16:10.373Z,11.90
2024-04-25T04:18:42.789Z,11.90
2024-04-25T04:21:14.275Z,12.27
2024-04-25T04:23:44.579Z,11.77
2024-04-25T04:26:14.423Z,11.70
2024-04-25T04:28:44.192Z,11.13
2024-04-25T04:31:13.913Z,10.70
2024-04-25T04:33:46.437Z,11.50
2024-04-25T04:36:16.228Z,11.93
2024-04-25T04:38:45.974Z,11.83
2024-04-25T04:41:16.327Z,10.97
2024-04-25T04:43:46.087Z,12.20
2024-04-25T04:46:15.783Z,11.77
2024-04-25T04:48:50.107Z,12.93
2024-04-25T04:51:21.544Z,12.87
2024-04-25T04:53:51.611Z,12.90
2024-04-25T04:56:22.011Z,11.77
2024-04-25T04:58:51.778Z,11.50
2024-04-25T05:02:01.995Z,11.70
2024-04-25T05:04:34.952Z,10.37
2024-04-25T05:07:04.927Z,10.10
2024-04-25T05:09:35.193Z,11.03
2024-04-25T05:12:05.330Z,11.57
2024-04-25T05:14:35.176Z,11.03
2024-04-25T05:17:04.888Z,11.37
2024-04-25T05:19:37.236Z,11.43
2024-04-25T05:22:07.000Z,12.20
2024-04-25T05:24:36.682Z,11.93
2024-04-25T05:27:07.060Z,12.97
2024-04-25T05:29:38.573Z,14.20
2024-04-25T05:32:09.876Z,13.83
2024-04-25T05:34:42.782Z,13.33
2024-04-25T05:37:12.493Z,12.93
2024-04-25T05:39:42.170Z,11.50
2024-04-25T05:42:12.949Z,12.30
2024-04-25T05:44:48.271Z,11.83
2024-04-25T05:47:19.446Z,11.10
2024-04-25T05:49:52.475Z,13.07
2024-04-25T05:52:22.675Z,13.00
2024-04-25T05:54:52.867Z,14.40
2024-04-25T05:57:22.560Z,16.00
2024-04-25T05:59:52.231Z,17.30
2024-04-25T06:02:25.813Z,17.43
2024-04-25T06:04:58.173Z,18.70
2024-04-25T06:07:27.860Z,20.63
2024-04-25T06:09:57.830Z,19.33
2024-04-25T06:12:28.045Z,20.60
2024-04-25T06:14:57.871Z,20.17
2024-04-25T06:17:27.614Z,23.00
2024-04-25T06:19:59.926Z,21.70
2024-04-25T06:22:29.643Z,22.63
2024-04-25T06:25:02.753Z,21.30
2024-04-25T06:27:32.445Z,20.83
2024-04-25T06:30:02.115Z,20.97
2024-04-25T06:32:33.006Z,19.97
2024-04-25T06:35:06.947Z,21.13
2024-04-25T06:37:37.437Z,21.13
2024-04-25T06:40:07.990Z,21.80
2024-04-25T06:42:37.645Z,21.10
2024-04-25T06:45:08.195Z,21.93
2024-04-25T06:47:38.198Z,22.23
2024-04-25T06:50:11.283Z,22.40
2024-04-25T06:52:40.961Z,22.43
2024-04-25T06:55:10.648Z,23.07
2024-04-25T06:57:40.759Z,23.00
2024-04-25T07:00:11.273Z,23.73
2024-04-25T07:02:41.196Z,23.87
2024-04-25T07:05:13.514Z,23.60
2024-04-25T07:07:43.784Z,24.87
2024-04-25T07:10:13.830Z,24.90
2024-04-25T07:12:43.681Z,26.90
2024-04-25T07:15:13.381Z,25.93
2024-04-25T07:17:43.382Z,24.57
2024-04-25T07:20:16.160Z,25.77
2024-04-25T07:22:45.846Z,26.67
2024-04-25T07:25:15.660Z,23.80
2024-04-25T07:27:45.506Z,22.93
2024-04-25T07:30:15.479Z,22.50
2024-04-25T07:32:45.422Z,21.83
2024-04-25T07:35:18.675Z,20.83
2024-04-25T07:37:48.456Z,21.00
2024-04-25T07:40:18.724Z,18.53
2024-04-25T07:42:48.420Z,16.97
2024-04-25T07:45:18.117Z,17.33
2024-04-25T07:47:47.976Z,16.83
2024-04-25T07:50:20.517Z,16.70
2024-04-25T07:52:50.291Z,17.20
2024-04-25T07:55:20.023Z,13.80
2024-04-25T07:57:49.696Z,14.60
2024-04-25T08:00:19.826Z,13.37
2024-04-25T08:02:50.191Z,13.87
2024-04-25T08:05:22.600Z,11.50
2024-04-25T08:07:52.548Z,10.73
2024-04-25T08:10:22.909Z,10.93
2024-04-25T08:12:52.702Z,9.63
2024-04-25T08:15:22.405Z,9.37
2024-04-25T08:17:53.558Z,9.27
2024-04-25T08:20:27.368Z,9.93
2024-04-25T08:22:57.368Z,10.23
2024-04-25T08:25:27.133Z,8.70
2024-04-25T08:27:57.166Z,10.43
2024-04-25T08:30:27.646Z,9.40
2024-04-25T08:32:57.649Z,9.60
2024-04-25T08:35:30.083Z,9.07
2024-04-25T08:37:59.955Z,9.63
2024-04-25T08:40:29.791Z,10.10
2024-04-25T08:42:59.951Z,8.80
2024-04-25T08:45:31.171Z,8.13
2024-04-25T08:48:02.946Z,8.77
2024-04-25T08:50:37.100Z,9.03
2024-04-25T08:53:08.894Z,8.73
2024-04-25T08:55:40.435Z,7.60
2024-04-25T08:58:10.126Z,8.47
2024-04-25T09:00:41.842Z,7.77
2024-04-25T09:03:16.991Z,7.27
2024-04-25T09:05:49.477Z,7.57
2024-04-25T09:08:21.099Z,7.80
2024-04-25T09:10:50.809Z,7.37
2024-04-25T09:13:22.517Z,7.23
2024-04-25T09:15:52.201Z,6.23
2024-04-25T09:18:22.067Z,7.00
2024-04-25T09:20:55.447Z,6.87
2024-04-25T09:23:25.210Z,6.77
2024-04-25T09:25:55.285Z,6.40
2024-04-25T09:28:25.050Z,6.47
2024-04-25T09:30:54.970Z,6.43
2024-04-25T09:33:24.717Z,6.87
2024-04-25T09:35:57.328Z,11.70
2024-04-25T09:38:27.114Z,7.03
2024-04-25T09:40:58.859Z,6.40
2024-04-25T09:43:29.127Z,6.90
2024-04-25T09:46:02.060Z,7.37
2024-04-25T09:48:36.053Z,7.97
2024-04-25T09:51:16.995Z,7.80
2024-04-25T09:53:51.539Z,8.07
2024-04-25T09:56:25.737Z,8.03
2024-04-25T09:59:02.945Z,7.03
2024-04-25T10:01:34.088Z,7.10
2024-04-25T10:04:04.190Z,7.50
2024-04-25T10:06:37.768Z,6.00
2024-04-25T10:09:08.095Z,6.67
2024-04-25T10:11:39.975Z,7.23
2024-04-25T10:14:09.738Z,9.13
2024-04-25T10:16:40.161Z,9.20
2024-04-25T10:19:10.046Z,7.77
2024-04-25T10:21:49.490Z,8.37
2024-04-25T10:24:19.496Z,8.37
2024-04-25T10:26:50.412Z,8.77
2024-04-25T10:29:20.879Z,7.80
2024-04-25T10:31:50.646Z,6.43
2024-04-25T10:34:20.892Z,6.80
2024-04-25T10:36:53.238Z,6.23
2024-04-25T10:39:23.162Z,6.60
2024-04-25T10:41:53.034Z,7.30
2024-04-25T10:44:22.774Z,7.27
2024-04-25T10:46:52.800Z,6.97
2024-04-25T10:49:22.718Z,5.90
2024-04-25T10:51:55.150Z,4.53
2024-04-25T10:54:24.909Z,5.60
2024-04-25T10:56:54.849Z,8.50
2024-04-25T10:59:31.075Z,5.50
2024-04-25T11:02:03.478Z,6.43
2024-04-25T11:04:36.702Z,5.93
2024-04-25T11:07:10.255Z,6.17
2024-04-25T11:09:40.110Z,6.23
2024-04-25T11:12:13.520Z,4.40
2024-04-25T11:14:43.783Z,4.47
2024-04-25T11:17:16.170Z,4.80
2024-04-25T11:19:49.717Z,4.43
2024-04-25T11:22:30.804Z,3.43
2024-04-25T11:25:17.277Z,3.37
2024-04-25T11:27:47.183Z,3.83
2024-04-25T11:30:17.100Z,4.20
2024-04-25T11:32:47.996Z,4.33
2024-04-25T11:35:23.255Z,4.47
2024-04-25T11:37:58.247Z,5.10
2024-04-25T11:40:37.729Z,4.43
2024-04-25T11:43:08.571Z,4.47
2024-04-25T11:45:38.799Z,3.23
2024-04-25T11:48:10.445Z,3.07
2024-04-25T11:50:40.324Z,3.23
2024-04-25T11:53:10.752Z,2.80
2024-04-25T11:55:40.968Z,2.37
2024-04-25T11:58:11.847Z,2.87
2024-04-25T12:00:49.098Z,2.50
2024-04-25T12:03:19.513Z,2.80
2024-04-25T12:05:49.800Z,2.90
2024-04-25T12:08:22.306Z,3.03
2024-04-25T12:10:54.315Z,3.20
2024-04-25T12:13:24.157Z,3.10
2024-04-25T12:15:53.877Z,2.90
2024-04-25T12:18:26.183Z,3.27
2024-04-25T12:20:59.007Z,2.80
2024-04-25T12:23:34.986Z,3.17
2024-04-25T12:26:05.026Z,3.10
2024-04-25T12:28:35.716Z,2.50
2024-04-25T12:31:08.163Z,2.50
2024-04-25T12:33:40.002Z,1.87
2024-04-25T12:36:10.479Z,3.00
2024-04-25T12:38:42.849Z,1.97
2024-04-25T12:41:14.053Z,2.30
2024-04-25T12:43:43.773Z,1.63
2024-04-25T12:46:13.445Z,1.47
2024-04-25T12:48:44.678Z,1.70
2024-04-25T12:51:14.707Z,1.90
2024-04-25T12:53:47.163Z,1.70
2024-04-25T12:56:17.304Z,2.03
2024-04-25T12:58:47.041Z,1.63
2024-04-25T13:01:16.874Z,1.43
2024-04-25T13:03:50.276Z,1.90
2024-04-25T13:06:20.082Z,3.03
2024-04-25T13:08:52.638Z,2.23
2024-04-25T13:11:22.749Z,2.13
2024-04-25T13:13:52.576Z,1.50
2024-04-25T13:16:22.299Z,1.77
2024-04-25T13:18:52.104Z,2.70
2024-04-25T13:21:21.865Z,2.37
2024-04-25T13:23:54.493Z,3.43
2024-04-25T13:26:26.464Z,2.47
2024-04-25T13:28:56.189Z,2.40
2024-04-25T13:31:27.019Z,2.10
2024-04-25T13:33:57.385Z,3.73
2024-04-25T13:36:28.462Z,2.97
2024-04-25T13:39:00.914Z,3.20
2024-04-25T13:41:30.727Z,2.80
2024-04-25T13:44:00.587Z,3.10
2024-04-25T13:46:32.013Z,3.10
2024-04-25T13:49:01.813Z,3.23
2024-04-25T13:51:31.710Z,3.80
2024-04-25T13:54:07.623Z,1.73
2024-04-25T13:56:37.528Z,3.07
2024-04-25T13:59:07.283Z,5.63
2024-04-25T14:01:37.033Z,2.87
2024-04-25T14:04:06.991Z,2.70
2024-04-25T14:06:40.070Z,3.20
2024-04-25T14:09:12.401Z,2.83
2024-04-25T14:11:42.946Z,2.53
2024-04-25T14:14:15.473Z,4.53
2024-04-25T14:16:45.184Z,4.33
2024-04-25T14:19:15.020Z,2.90
2024-04-25T14:21:45.069Z,2.47
2024-04-25T14:24:19.781Z,3.00
2024-04-25T14:27:05.238Z,2.90
2024-04-25T14:29:37.688Z,1.90
2024-04-25T14:32:07.843Z,2.17
2024-04-25T14:34:37.570Z,2.77
2024-04-25T14:37:07.248Z,2.37
2024-04-25T14:39:41.486Z,3.10
2024-04-25T14:42:11.824Z,4.50
2024-04-25T14:44:41.578Z,3.60
2024-04-25T14:47:11.370Z,3.03
2024-04-25T14:49:41.693Z,2.70
2024-04-25T14:52:11.387Z,2.87
2024-04-25T14:54:43.695Z,2.87
2024-04-25T14:57:13.348Z,3.40
2024-04-25T14:59:43.031Z,2.33
2024-04-25T15:02:12.775Z,3.73
2024-04-25T15:04:42.504Z,4.43
2024-04-25T15:07:13.614Z,3.80
2024-04-25T15:09:45.972Z,4.17
2024-04-25T15:12:15.752Z,2.87
2024-04-25T15:17:15.652Z,2.83
2024-04-25T15:19:46.131Z,3.53
2024-04-25T15:22:15.933Z,5.37
2024-04-25T15:24:48.375Z,3.37
2024-04-25T15:27:18.088Z,3.50
2024-04-25T15:29:48.037Z,2.90
2024-04-25T15:32:17.846Z,3.57
2024-04-25T15:34:47.603Z,3.87
2024-04-25T15:37:20.158Z,2.33
2024-04-25T15:39:52.732Z,5.87
2024-04-25T15:42:22.442Z,5.13
2024-04-25T15:44:54.029Z,2.90
2024-04-25T15:47:23.934Z,3.73
2024-04-25T15:49:53.770Z,3.43
2024-04-25T15:52:23.480Z,4.50
2024-04-25T15:54:55.753Z,3.57
2024-04-25T15:57:25.421Z,3.33
2024-04-25T15:59:55.347Z,4.73
2024-04-25T16:02:25.211Z,5.20
2024-04-25T16:04:54.970Z,4.63
2024-04-25T16:07:24.674Z,4.07
2024-04-25T16:09:56.989Z,3.87
2024-04-25T16:12:26.821Z,4.57
2024-04-25T16:14:57.369Z,4.03
2024-04-25T16:17:27.246Z,4.10
2024-04-25T16:19:57.015Z,4.90
2024-04-25T16:22:26.704Z,3.93
2024-04-25T16:25:00.425Z,4.03
2024-04-25T16:27:30.548Z,3.73
2024-04-25T16:30:00.337Z,3.77
2024-04-25T16:32:30.205Z,5.37
2024-04-25T16:34:59.947Z,3.07
2024-04-25T16:37:29.614Z,11.87
2024-04-25T16:40:02.172Z,14.63
2024-04-25T16:42:31.858Z,6.37
2024-04-25T16:45:02.701Z,5.13
2024-04-25T16:47:32.920Z,5.93
2024-04-25T16:50:02.796Z,3.70
2024-04-25T16:52:32.477Z,5.47
2024-04-25T16:55:04.805Z,4.43
2024-04-25T16:57:35.451Z,2.90
2024-04-25T17:00:05.383Z,3.63
2024-04-25T17:02:36.581Z,3.83
2024-04-25T17:05:06.411Z,4.93
2024-04-25T17:07:36.415Z,3.27
2024-04-25T17:10:10.614Z,2.67
2024-04-25T17:12:40.323Z,2.30
2024-04-25T17:15:10.929Z,2.80
2024-04-25T17:17:41.977Z,4.33
2024-04-25T17:20:12.484Z,3.53
2024-04-25T17:22:42.159Z,3.47
2024-04-25T17:25:14.413Z,3.13
2024-04-25T17:27:45.335Z,4.20
2024-04-25T17:30:15.147Z,3.03
2024-04-25T17:32:44.980Z,2.27
2024-04-25T17:35:14.873Z,2.93
2024-04-25T17:37:45.155Z,2.40
2024-04-25T17:40:17.583Z,2.70
2024-04-25T17:42:47.405Z,3.73
2024-04-25T17:45:17.256Z,3.23
2024-04-25T17:47:47.042Z,2.90
2024-04-25T17:50:16.868Z,4.73
2024-04-25T17:52:46.602Z,2.33
2024-04-25T17:55:18.949Z,3.13
2024-04-25T17:57:48.654Z,2.13
2024-04-25T18:00:19.131Z,4.70
2024-04-25T18:02:51.298Z,2.57
2024-04-25T18:05:21.117Z,3.37
2024-04-25T18:07:50.889Z,2.70
2024-04-25T18:10:23.241Z,2.93
2024-04-25T18:12:52.984Z,2.83
2024-04-25T18:15:22.711Z,3.50
2024-04-25T18:17:52.486Z,2.50
2024-04-25T18:20:22.260Z,2.80
2024-04-25T18:22:52.447Z,1.73
2024-04-25T18:25:24.765Z,2.27
2024-04-25T18:27:54.535Z,2.60
2024-04-25T18:30:24.972Z,2.90
2024-04-25T18:32:54.747Z,2.80
2024-04-25T18:35:24.532Z,3.63
2024-04-25T18:37:54.377Z,3.30
2024-04-25T18:40:26.701Z,3.73
2024-04-25T18:42:56.819Z,3.63
2024-04-25T18:45:26.938Z,3.70
2024-04-25T18:47:56.729Z,2.40
2024-04-25T18:50:26.568Z,2.73
2024-04-25T18:52:57.246Z,3.93
2024-04-25T18:55:29.554Z,2.37
2024-04-25T18:57:59.367Z,2.87
2024-04-25T19:00:29.905Z,3.47
2024-04-25T19:03:01.695Z,4.37
2024-04-25T19:05:31.540Z,3.60
2024-04-25T19:08:01.254Z,3.60
2024-04-25T19:10:33.716Z,3.93
2024-04-25T19:13:04.148Z,4.10
2024-04-25T19:15:33.841Z,4.97
2024-04-25T19:18:03.605Z,3.83
2024-04-25T19:20:33.333Z,3.77
2024-04-25T19:23:03.088Z,3.70
2024-04-25T19:25:35.399Z,6.80
2024-04-25T19:28:05.084Z,4.00
2024-04-25T19:30:34.778Z,4.87
2024-04-25T19:33:04.584Z,5.60
2024-04-25T19:35:34.516Z,4.73
2024-04-25T19:38:06.130Z,4.33
2024-04-25T19:40:40.189Z,4.13
2024-04-25T19:43:09.890Z,3.73
2024-04-25T19:45:39.604Z,6.57
2024-04-25T19:48:09.844Z,6.53
2024-04-25T19:50:39.705Z,4.43
2024-04-25T19:53:09.740Z,5.13
2024-04-25T19:55:42.046Z,5.70
2024-04-25T19:58:11.723Z,4.50
2024-04-25T20:00:41.419Z,3.80
2024-04-25T20:03:11.183Z,3.17
2024-04-25T20:05:41.398Z,4.40
2024-04-25T20:08:12.726Z,3.40
2024-04-25T20:10:45.108Z,3.60
2024-04-25T20:13:14.916Z,3.83
2024-04-25T20:15:44.745Z,3.10
2024-04-25T20:18:30.424Z,2.63
2024-04-25T20:21:06.686Z,2.97
2024-04-25T20:23:40.157Z,3.03
2024-04-25T20:26:13.702Z,2.70
2024-04-25T20:28:44.273Z,2.87
2024-04-25T20:31:18.966Z,3.17
2024-04-25T20:33:49.416Z,3.90
2024-04-25T20:36:19.358Z,3.00
2024-04-25T20:38:49.767Z,4.10
2024-04-25T20:41:22.722Z,3.20
2024-04-25T20:43:52.553Z,4.60
2024-04-25T20:46:25.697Z,4.20
2024-04-25T20:48:57.143Z,3.90
2024-04-25T20:51:31.042Z,5.07
2024-04-25T20:54:01.639Z,3.13
2024-04-25T20:56:34.866Z,2.90
2024-04-25T20:59:04.583Z,3.00
2024-04-25T21:01:37.937Z,2.90
2024-04-25T21:04:07.756Z,3.30
2024-04-25T21:06:43.214Z,3.20
2024-04-25T21:09:14.577Z,3.57
2024-04-25T21:11:46.947Z,3.87
2024-04-25T21:14:16.679Z,3.87
2024-04-25T21:16:46.481Z,3.17
2024-04-25T21:19:16.203Z,3.63
2024-04-25T21:21:48.378Z,3.63
2024-04-25T21:24:18.583Z,3.40
2024-04-25T21:26:50.893Z,4.70
2024-04-25T21:29:20.627Z,4.77
2024-04-25T21:31:53.643Z,4.63
2024-04-25T21:34:23.747Z,4.80
2024-04-25T21:36:53.812Z,6.77
2024-04-25T21:39:23.575Z,6.53
2024-04-25T21:41:55.888Z,6.47
2024-04-25T21:44:25.622Z,6.93
2024-04-25T21:46:55.325Z,8.20
2024-04-25T21:49:25.177Z,7.77
2024-04-25T21:51:55.000Z,7.20
2024-04-25T21:54:24.675Z,7.30
2024-04-25T21:56:57.483Z,7.33
2024-04-25T21:59:27.278Z,7.10
2024-04-25T22:01:58.063Z,6.43
2024-04-25T22:04:27.851Z,6.80
2024-04-25T22:06:58.250Z,6.90
2024-04-25T22:09:28.189Z,6.53
2024-04-25T22:12:00.786Z,7.50
2024-04-25T22:14:30.807Z,6.53
2024-04-25T22:17:00.605Z,6.50
2024-04-25T22:19:30.470Z,6.20
2024-04-25T22:22:00.285Z,6.47
2024-04-25T22:24:30.112Z,6.63
2024-04-25T22:27:02.848Z,6.17
2024-04-25T22:29:33.208Z,6.77
2024-04-25T22:32:03.024Z,6.67
2024-04-25T22:34:33.043Z,8.13
2024-04-25T22:37:02.923Z,7.67
2024-04-25T22:39:32.755Z,6.90
2024-04-25T22:42:05.184Z,7.80
2024-04-25T22:44:35.567Z,7.60
2024-04-25T22:47:05.379Z,8.63
2024-04-25T22:49:35.200Z,9.10
2024-04-25T22:52:04.966Z,8.83
2024-04-25T22:54:34.800Z,9.40
2024-04-25T22:57:08.803Z,8.93
2024-04-25T22:59:38.618Z,9.20
2024-04-25T23:02:08.647Z,9.27
2024-04-25T23:04:38.460Z,9.87
2024-04-25T23:07:08.267Z,9.63
2024-04-25T23:09:38.049Z,10.30
2024-04-25T23:12:12.012Z,10.37
2024-04-25T23:14:42.141Z,10.10
2024-04-25T23:17:12.098Z,10.77
2024-04-25T23:19:45.433Z,11.33
2024-04-25T23:22:15.223Z,10.37
2024-04-25T23:24:45.055Z,9.97
2024-04-25T23:27:17.448Z,10.13
2024-04-25T23:29:47.298Z,11.00
2024-04-25T23:32:17.134Z,10.33
2024-04-25T23:34:46.903Z,10.20
2024-04-25T23:37:16.670Z,10.00
2024-04-25T23:39:46.437Z,10.63
2024-04-25T23:42:18.915Z,10.07
2024-04-25T23:44:48.788Z,10.03
2024-04-25T23:47:18.576Z,10.40
2024-04-25T23:49:48.321Z,11.30
2024-04-25T23:52:20.514Z,9.70
2024-04-25T23:54:50.295Z,10.07
2024-04-25T23:57:22.680Z,10.53
2024-04-25T23:59:52.438Z,10.20
